Accueil
METAR-TAF:

METAR-TAF

Aéroports :

Gloucester, Angleterre

Aéroport de Gloucestershire

latitude: 51-54N, longitude: 002-10W, altitude: 29 m

Observation

Le bulletin a été fait il y a 7 heures et 50 minutes, à 17:50 UTC
Vent 17 kt de sud-ouest avec des rafales jusqu'à 27 kt
Température 16°C
Humidité 55%
Pression 1012 hPa
Visibilité 10 km ou plus
Quelques nuages à une hauteur de 3000 ft

METAR: EGBJ 161750Z 23017G27KT 9999 FEW030 16/07 Q1012

Heure: 02:40 (01:40 UTC)

Prévision

Le bulletin a été fait il y a 11 heures et 38 minutes, à 14:02 UTC
Prévision valable du 16 à 15 UTC au 16 à 19 UTC
Vent 20 kt de sud/sud-ouest avec des rafales jusqu'à 30 kt
Visibilité 10 km ou plus
Nuages épars à une hauteur de 4000 ft
Probabilité 30% :
Temporairement
du 16 à 15 UTC au 16 à 19 UTC
Vent 30 kt de sud-ouest avec des rafales jusqu'à 40 kt

TAF: EGBJ 161402Z 1615/1619 21020G30KT 9999 SCT040 PROB30 TEMPO 1615/1619 22030G40KT

Observations et prévisions météorologiques de plus de 4000 aéroports (messages METAR et TAF).

Les stations disponibles sont représentées par des disques jaunes et rouges sur la carte.

Passer la souris dessus pour voir le nom de la station.

Cliquer dessus pour voir les observations et prévisions météorologiques.

Pour changer de carte: cliquez sur les boutons verts avec une croix noire pour zoomer, sur le bouton vert avec un tiret pour effectuer un zoom arrière, ou sur les flèches vertes pour les cartes adjacentes.


METAR-TAF: